Terminal Aerodrome Forecast
Issued by NWS St Louis, MO

Home | Current Version | Previous Version | Graphics & Text | Print | Product List | Glossary On
Versions: 1 2 3 4 5 6 7 8 9 10 11 12 13 14 15 16 17 18 19 20 21 22 23 24 25 26
000
FTUS43 KLSX 272147 AAC
TAFSTL
TAF AMD
KSTL 272147Z 2722/2824 VRB05KT P6SM VCTS SCT030CB BKN250
      TEMPO 2723/2802 VRB20G40KT 2SM TSRA BKN030CB
     FM280200 VRB04KT P6SM SCT250
     FM281500 16005KT P6SM SCT050
     FM282000 20005KT P6SM BKN050=

USA.gov is the U.S. government's official web portal to all federal, state and local government web resources and services.